Time;durP1;ratioP1;P1;durP2;ratioP2;P2;SDS_P1;SDS_P2;PMS_P1;PMS_P2;Temp;Humidity;BMP_temperature;BMP_pressure;BME280_temperature;BME280_humidity;BME280_pressure;Samples;Min_cycle;Max_cycle;Signal;HPM_P1;HPM_P2
2022/03/19 00:00:55;;;;;;;17.60;5.40;;;;;;;;;;5071204;28;20241;-58
2022/03/19 00:03:21;;;;;;;19.00;5.75;;;;;;;;;;5071952;28;20234;-58
2022/03/19 00:05:46;;;;;;;22.45;8.27;;;;;;;;;;5072274;28;20214;-58
2022/03/19 00:08:11;;;;;;;17.67;7.50;;;;;;;;;;5071051;28;20293;-58
2022/03/19 00:10:37;;;;;;;19.15;5.72;;;;;;;;;;5072480;28;20576;-58
2022/03/19 00:13:03;;;;;;;15.57;6.35;;;;;;;;;;5071832;28;20685;-58
2022/03/19 00:15:28;;;;;;;16.95;6.28;;;;;;;;;;5062886;28;20221;-58
2022/03/19 00:17:54;;;;;;;15.90;5.70;;;;;;;;;;5052068;28;20203;-58
2022/03/19 00:20:19;;;;;;;19.30;5.70;;;;;;;;;;5051583;28;20685;-58
2022/03/19 00:22:44;;;;;;;19.23;6.30;;;;;;;;;;5051217;28;20586;-58
2022/03/19 00:25:10;;;;;;;17.92;5.97;;;;;;;;;;5051575;28;20260;-58
2022/03/19 00:27:36;;;;;;;18.08;6.03;;;;;;;;;;5050318;28;20215;-58
2022/03/19 00:30:01;;;;;;;17.95;6.07;;;;;;;;;;5051395;28;20221;-58
2022/03/19 00:32:26;;;;;;;16.23;6.28;;;;;;;;;;5052031;28;20203;-57
2022/03/19 00:34:51;;;;;;;16.88;6.03;;;;;;;;;;5051225;28;20223;-58
2022/03/19 00:37:17;;;;;;;16.98;5.80;;;;;;;;;;5051367;28;20685;-57
2022/03/19 00:39:42;;;;;;;20.58;6.25;;;;;;;;;;5051711;28;20334;-58
2022/03/19 00:42:07;;;;;;;22.60;6.72;;;;;;;;;;5050482;28;20215;-58
2022/03/19 00:44:33;;;;;;;19.05;6.07;;;;;;;;;;5055536;28;20639;-58
2022/03/19 00:46:58;;;;;;;17.83;6.90;;;;;;;;;;5071585;28;20268;-58
2022/03/19 00:49:23;;;;;;;21.25;6.35;;;;;;;;;;5070340;28;20210;-58
2022/03/19 00:51:48;;;;;;;18.63;6.40;;;;;;;;;;5071345;28;20222;-58
2022/03/19 00:54:15;;;;;;;21.25;6.43;;;;;;;;;;5070747;28;20732;-58
2022/03/19 00:56:40;;;;;;;18.10;6.57;;;;;;;;;;5070880;28;20210;-58
2022/03/19 00:59:06;;;;;;;18.85;6.90;;;;;;;;;;5066248;28;20662;-58
2022/03/19 01:01:31;;;;;;;20.27;6.55;;;;;;;;;;5051311;28;20294;-58
2022/03/19 01:03:56;;;;;;;19.98;6.95;;;;;;;;;;5050547;28;20234;-57
2022/03/19 01:06:22;;;;;;;23.05;9.57;;;;;;;;;;5051146;28;20252;-58
2022/03/19 01:08:47;;;;;;;32.35;10.40;;;;;;;;;;5051095;28;20219;-58
2022/03/19 01:11:12;;;;;;;26.15;9.10;;;;;;;;;;5050068;28;20233;-58
2022/03/19 01:13:38;;;;;;;26.88;10.40;;;;;;;;;;5051015;28;20572;-58
2022/03/19 01:16:03;;;;;;;33.78;14.20;;;;;;;;;;5052176;28;20655;-58
2022/03/19 01:18:29;;;;;;;22.25;8.52;;;;;;;;;;5070032;28;20206;-58
2022/03/19 01:20:54;;;;;;;22.40;8.30;;;;;;;;;;5070981;28;20640;-58
2022/03/19 01:23:19;;;;;;;26.33;8.85;;;;;;;;;;5070039;28;20230;-58
2022/03/19 01:25:44;;;;;;;24.48;7.43;;;;;;;;;;5070001;28;20214;-58
2022/03/19 01:28:10;;;;;;;21.23;8.10;;;;;;;;;;5070183;28;20238;-58
2022/03/19 01:30:35;;;;;;;21.60;8.20;;;;;;;;;;5070680;28;20272;-58
2022/03/19 01:33:00;;;;;;;20.13;7.20;;;;;;;;;;5069432;28;20523;-58
2022/03/19 01:35:26;;;;;;;21.15;7.40;;;;;;;;;;5070577;28;20220;-58
2022/03/19 01:37:51;;;;;;;29.67;8.32;;;;;;;;;;5070616;28;20217;-57
2022/03/19 01:40:17;;;;;;;19.98;7.03;;;;;;;;;;5068974;28;20218;-58
2022/03/19 01:42:43;;;;;;;21.95;7.63;;;;;;;;;;5070559;28;20614;-58
2022/03/19 01:45:09;;;;;;;21.20;7.40;;;;;;;;;;5060174;28;20306;-57
2022/03/19 01:47:34;;;;;;;22.15;7.25;;;;;;;;;;5050432;28;20626;-58
2022/03/19 01:50:00;;;;;;;21.33;7.32;;;;;;;;;;5050354;28;20222;-58
2022/03/19 01:52:28;;;;;;;24.55;7.63;;;;;;;;;;5049052;28;20567;-58
2022/03/19 01:54:53;;;;;;;22.80;7.72;;;;;;;;;;5050255;28;20678;-58
2022/03/19 01:57:20;;;;;;;20.63;7.65;;;;;;;;;;5032001;28;20260;-58
2022/03/19 01:59:45;;;;;;;24.95;7.88;;;;;;;;;;5041676;28;20206;-58
2022/03/19 02:02:11;;;;;;;19.88;7.50;;;;;;;;;;5069827;28;20592;-58
2022/03/19 02:04:38;;;;;;;23.27;7.40;;;;;;;;;;5070172;28;20583;-58
2022/03/19 02:07:04;;;;;;;21.30;6.90;;;;;;;;;;5068969;28;20226;-57
2022/03/19 02:09:29;;;;;;;19.77;7.15;;;;;;;;;;5051869;28;20215;-58
2022/03/19 02:11:54;;;;;;;23.70;6.68;;;;;;;;;;5070105;28;20218;-58
2022/03/19 02:14:20;;;;;;;21.38;7.38;;;;;;;;;;5068860;28;20268;-58
2022/03/19 02:16:45;;;;;;;17.65;6.32;;;;;;;;;;5051083;28;20341;-58
2022/03/19 02:19:10;;;;;;;19.10;6.35;;;;;;;;;;5049526;28;20426;-58
2022/03/19 02:21:39;;;;;;;22.98;6.10;;;;;;;;;;5049296;28;20218;-57
2022/03/19 02:26:48;;;;;;;26.95;6.78;;;;;;;;;;5049812;28;20226;-58
2022/03/19 02:29:13;;;;;;;20.20;6.72;;;;;;;;;;5048618;28;20207;-58
2022/03/19 02:31:40;;;;;;;23.13;7.10;;;;;;;;;;5049747;28;20235;-58
2022/03/19 02:34:08;;;;;;;16.70;6.70;;;;;;;;;;5049278;28;20219;-58
2022/03/19 02:36:34;;;;;;;15.88;6.03;;;;;;;;;;5049180;28;20290;-57
2022/03/19 02:38:59;;;;;;;22.70;6.57;;;;;;;;;;5050094;28;20349;-58
2022/03/19 02:41:24;;;;;;;18.30;6.32;;;;;;;;;;5048427;28;20211;-57
2022/03/19 02:43:50;;;;;;;17.50;6.40;;;;;;;;;;5049662;28;20603;-58
2022/03/19 02:46:15;;;;;;;20.38;7.32;;;;;;;;;;5067586;28;20264;-58
2022/03/19 02:48:40;;;;;;;19.83;6.15;;;;;;;;;;5069046;28;20297;-57
2022/03/19 02:51:08;;;;;;;17.88;6.10;;;;;;;;;;5070701;28;20681;-58
2022/03/19 02:53:33;;;;;;;19.65;7.05;;;;;;;;;;5073827;28;20309;-58
2022/03/19 02:55:58;;;;;;;19.70;6.85;;;;;;;;;;5072835;28;20298;-58
2022/03/19 02:58:24;;;;;;;24.95;7.05;;;;;;;;;;5073145;28;20240;-57
2022/03/19 03:00:49;;;;;;;18.95;6.95;;;;;;;;;;5054989;28;20241;-58
2022/03/19 03:03:15;;;;;;;20.83;6.80;;;;;;;;;;5052301;28;20219;-58
2022/03/19 03:05:40;;;;;;;16.90;6.70;;;;;;;;;;5053377;28;20218;-57
2022/03/19 03:08:05;;;;;;;20.17;7.47;;;;;;;;;;5053374;28;20218;-58
2022/03/19 03:10:31;;;;;;;22.42;7.40;;;;;;;;;;5052568;28;20214;-57
2022/03/19 03:12:56;;;;;;;26.02;8.25;;;;;;;;;;5053516;28;20211;-57
2022/03/19 03:15:21;;;;;;;21.40;7.25;;;;;;;;;;5052938;28;20221;-58
2022/03/19 03:17:46;;;;;;;20.48;7.45;;;;;;;;;;5068652;28;20203;-58
2022/03/19 03:20:12;;;;;;;21.48;6.93;;;;;;;;;;5072635;28;20214;-57
2022/03/19 03:22:37;;;;;;;24.38;8.23;;;;;;;;;;5072912;28;20214;-58
2022/03/19 03:25:03;;;;;;;20.90;7.22;;;;;;;;;;5072238;28;20219;-58
2022/03/19 03:27:29;;;;;;;21.13;7.68;;;;;;;;;;5073317;28;20206;-57
2022/03/19 03:29:54;;;;;;;17.60;7.07;;;;;;;;;;5073012;28;20221;-58
2022/03/19 03:32:19;;;;;;;20.80;7.75;;;;;;;;;;5071923;28;21280;-57
2022/03/19 03:34:44;;;;;;;19.48;7.53;;;;;;;;;;5072889;28;20199;-58
2022/03/19 03:37:10;;;;;;;24.10;8.07;;;;;;;;;;5072846;28;20206;-58
2022/03/19 03:39:35;;;;;;;25.65;7.65;;;;;;;;;;5072185;28;20556;-58
2022/03/19 03:42:00;;;;;;;23.77;9.35;;;;;;;;;;5072190;28;20217;-58
2022/03/19 03:44:26;;;;;;;23.95;8.43;;;;;;;;;;5069663;28;20239;-58
2022/03/19 03:46:51;;;;;;;23.98;8.68;;;;;;;;;;5052098;28;20211;-58
2022/03/19 03:49:16;;;;;;;21.48;8.77;;;;;;;;;;5052314;28;20269;-58
2022/03/19 03:51:41;;;;;;;23.25;8.40;;;;;;;;;;5051946;28;20199;-58
2022/03/19 03:54:07;;;;;;;24.50;8.77;;;;;;;;;;5052095;28;20234;-58
2022/03/19 03:56:32;;;;;;;23.50;8.37;;;;;;;;;;5052870;28;20203;-57
2022/03/19 03:58:57;;;;;;;24.20;8.93;;;;;;;;;;5037376;28;20210;-58
2022/03/19 04:01:22;;;;;;;21.05;8.52;;;;;;;;;;5072000;28;20614;-58
2022/03/19 04:03:49;;;;;;;22.95;8.32;;;;;;;;;;5072559;28;20241;-58
2022/03/19 04:06:14;;;;;;;20.50;8.85;;;;;;;;;;5070965;28;20210;-58
2022/03/19 04:08:39;;;;;;;21.40;8.68;;;;;;;;;;5072173;28;20222;-58
2022/03/19 04:11:05;;;;;;;22.95;8.27;;;;;;;;;;5071920;28;20443;-58
2022/03/19 04:13:30;;;;;;;20.77;9.00;;;;;;;;;;5071484;28;20673;-58
2022/03/19 04:15:55;;;;;;;23.15;8.55;;;;;;;;;;5060289;28;20215;-58
2022/03/19 04:18:21;;;;;;;24.23;8.57;;;;;;;;;;5051694;28;20237;-58
2022/03/19 04:20:46;;;;;;;21.30;8.50;;;;;;;;;;5050879;28;20631;-58
2022/03/19 04:23:11;;;;;;;22.23;8.40;;;;;;;;;;5051565;28;20269;-57
2022/03/19 04:25:36;;;;;;;18.35;9.10;;;;;;;;;;5052215;28;20673;-58
2022/03/19 04:28:02;;;;;;;24.45;8.77;;;;;;;;;;5051065;28;20243;-58
2022/03/19 04:30:27;;;;;;;23.88;9.05;;;;;;;;;;5051836;28;20207;-58
2022/03/19 04:32:55;;;;;;;23.70;9.65;;;;;;;;;;5051908;28;20293;-58
2022/03/19 04:38:05;;;;;;;22.90;8.55;;;;;;;;;;5051501;28;20661;-58
2022/03/19 04:40:30;;;;;;;18.17;8.17;;;;;;;;;;5051910;28;20215;-57
2022/03/19 04:42:55;;;;;;;25.42;8.95;;;;;;;;;;5033218;28;20659;-58
2022/03/19 04:45:21;;;;;;;22.52;8.50;;;;;;;;;;5061872;28;20206;-58
2022/03/19 04:47:46;;;;;;;22.63;8.90;;;;;;;;;;5072017;28;20226;-58
2022/03/19 04:50:11;;;;;;;20.77;8.27;;;;;;;;;;5070465;28;20219;-57
2022/03/19 04:52:37;;;;;;;20.40;8.35;;;;;;;;;;5071147;28;20326;-58
2022/03/19 04:55:02;;;;;;;21.58;9.02;;;;;;;;;;5070150;28;20693;-57
2022/03/19 04:57:27;;;;;;;22.58;8.77;;;;;;;;;;5053253;28;20246;-58
2022/03/19 04:59:53;;;;;;;22.73;8.48;;;;;;;;;;5060168;28;20694;-58
2022/03/19 05:02:20;;;;;;;17.27;7.88;;;;;;;;;;5050156;28;20207;-58
2022/03/19 05:04:45;;;;;;;22.42;8.48;;;;;;;;;;5051540;28;20219;-58
2022/03/19 05:07:10;;;;;;;20.43;7.80;;;;;;;;;;5050368;28;20622;-58
2022/03/19 05:12:29;;;;;;;21.63;7.63;;;;;;;;;;5050773;28;20353;-58
2022/03/19 05:14:55;;;;;;;20.20;8.25;;;;;;;;;;5050632;28;20661;-58
2022/03/19 05:17:20;;;;;;;21.02;7.70;;;;;;;;;;5062215;28;20225;-58
2022/03/19 05:19:46;;;;;;;22.17;7.93;;;;;;;;;;5070949;28;20274;-58
2022/03/19 05:22:11;;;;;;;23.13;7.78;;;;;;;;;;5070105;28;20612;-57
2022/03/19 05:24:36;;;;;;;22.80;7.85;;;;;;;;;;5070336;28;20237;-58
2022/03/19 05:27:01;;;;;;;21.02;7.88;;;;;;;;;;5070316;28;20211;-57
2022/03/19 05:29:27;;;;;;;19.02;8.27;;;;;;;;;;5070930;28;20213;-58
2022/03/19 05:31:52;;;;;;;20.85;8.43;;;;;;;;;;5070054;28;20198;-58
2022/03/19 05:34:29;;;;;;;19.50;7.57;;;;;;;;;;5070212;28;20646;-58
2022/03/19 05:36:55;;;;;;;21.07;8.03;;;;;;;;;;5070907;28;20714;-58
2022/03/19 05:39:20;;;;;;;19.92;8.23;;;;;;;;;;5051425;28;20215;-58
2022/03/19 05:41:45;;;;;;;19.57;7.90;;;;;;;;;;5053015;28;20279;-58
2022/03/19 05:44:10;;;;;;;19.20;7.37;;;;;;;;;;5068229;28;20728;-58
2022/03/19 05:46:36;;;;;;;18.25;7.50;;;;;;;;;;5050401;28;20261;-58
2022/03/19 05:49:01;;;;;;;23.60;7.97;;;;;;;;;;5050115;28;20695;-58
2022/03/19 05:51:26;;;;;;;22.33;7.63;;;;;;;;;;5049658;28;20217;-58
2022/03/19 05:53:51;;;;;;;21.77;7.88;;;;;;;;;;5050148;28;20725;-58
2022/03/19 05:56:17;;;;;;;18.33;7.53;;;;;;;;;;5049957;28;20235;-58
2022/03/19 05:58:43;;;;;;;22.55;7.82;;;;;;;;;;5050871;28;20615;-58
2022/03/19 06:01:08;;;;;;;17.95;8.20;;;;;;;;;;5069778;28;20218;-57
2022/03/19 06:03:33;;;;;;;22.17;7.87;;;;;;;;;;5070018;28;20244;-58
2022/03/19 06:05:58;;;;;;;22.40;7.55;;;;;;;;;;5069382;28;20682;-58
2022/03/19 06:08:24;;;;;;;22.23;7.60;;;;;;;;;;5069726;28;20290;-57
2022/03/19 06:10:49;;;;;;;20.33;7.40;;;;;;;;;;5070198;28;20214;-58
2022/03/19 06:13:14;;;;;;;21.17;7.23;;;;;;;;;;5068979;28;20301;-57
2022/03/19 06:15:39;;;;;;;22.27;7.87;;;;;;;;;;5059905;28;20222;-58
2022/03/19 06:18:05;;;;;;;15.25;6.78;;;;;;;;;;5049325;28;20310;-58
2022/03/19 06:20:30;;;;;;;20.93;8.17;;;;;;;;;;5048979;28;20218;-58
2022/03/19 06:22:55;;;;;;;19.97;7.40;;;;;;;;;;5049947;28;20724;-58
2022/03/19 06:25:21;;;;;;;21.27;7.97;;;;;;;;;;5049335;28;20226;-58
2022/03/19 06:27:46;;;;;;;22.80;7.87;;;;;;;;;;5049169;28;20215;-57
2022/03/19 06:30:11;;;;;;;19.27;7.77;;;;;;;;;;5049204;28;20736;-58
2022/03/19 06:32:37;;;;;;;21.23;7.83;;;;;;;;;;5049525;28;20218;-58
2022/03/19 06:35:03;;;;;;;20.23;8.17;;;;;;;;;;5051424;28;20202;-57
2022/03/19 06:37:29;;;;;;;20.65;7.38;;;;;;;;;;5069951;28;20244;-58
2022/03/19 06:39:56;;;;;;;18.60;7.30;;;;;;;;;;5069376;28;20214;-58
2022/03/19 06:42:21;;;;;;;16.92;6.75;;;;;;;;;;5068260;28;20227;-58
2022/03/19 06:44:47;;;;;;;19.58;6.97;;;;;;;;;;5063190;28;20227;-57
2022/03/19 06:47:12;;;;;;;19.67;6.90;;;;;;;;;;5048923;28;20318;-57
2022/03/19 06:49:37;;;;;;;16.17;6.32;;;;;;;;;;5048821;28;20211;-58
2022/03/19 06:52:03;;;;;;;17.23;6.70;;;;;;;;;;5048708;28;20214;-58
2022/03/19 06:54:28;;;;;;;17.60;6.83;;;;;;;;;;5048759;28;20294;-58
2022/03/19 06:56:54;;;;;;;19.27;6.57;;;;;;;;;;5049661;28;20207;-58
2022/03/19 06:59:19;;;;;;;15.13;6.35;;;;;;;;;;5055603;28;20665;-58
2022/03/19 07:01:45;;;;;;;17.17;6.30;;;;;;;;;;5050911;28;20628;-58
2022/03/19 07:04:10;;;;;;;16.13;5.97;;;;;;;;;;5069088;28;20279;-58
2022/03/19 07:06:35;;;;;;;15.10;5.75;;;;;;;;;;5069852;28;20586;-58
2022/03/19 07:09:01;;;;;;;14.50;5.70;;;;;;;;;;5068342;28;20203;-58
2022/03/19 07:11:26;;;;;;;16.65;6.05;;;;;;;;;;5069449;28;20223;-58
2022/03/19 07:13:51;;;;;;;12.90;6.00;;;;;;;;;;5069286;28;20218;-58
2022/03/19 07:16:17;;;;;;;12.10;5.20;;;;;;;;;;5052810;28;20638;-58
2022/03/19 07:18:42;;;;;;;14.23;4.88;;;;;;;;;;5049372;28;20298;-58
2022/03/19 07:21:08;;;;;;;15.25;4.97;;;;;;;;;;5048936;28;20301;-58
2022/03/19 07:23:33;;;;;;;15.00;4.78;;;;;;;;;;5048519;28;20697;-58
2022/03/19 07:25:59;;;;;;;14.43;4.82;;;;;;;;;;5049273;28;20215;-58
2022/03/19 07:28:25;;;;;;;14.50;5.13;;;;;;;;;;5048885;28;20551;-58
2022/03/19 07:30:50;;;;;;;13.13;4.78;;;;;;;;;;5048611;28;20243;-58
2022/03/19 07:33:15;;;;;;;17.85;5.28;;;;;;;;;;5048894;28;20294;-58
2022/03/19 07:35:41;;;;;;;14.90;4.90;;;;;;;;;;5049511;28;20529;-58
2022/03/19 07:38:06;;;;;;;12.35;4.72;;;;;;;;;;5051050;28;20604;-58
2022/03/19 07:43:15;;;;;;;15.65;5.30;;;;;;;;;;5052430;28;20265;-58
2022/03/19 07:45:41;;;;;;;13.57;5.20;;;;;;;;;;5065412;28;20612;-58
2022/03/19 07:48:06;;;;;;;14.57;5.65;;;;;;;;;;5072152;28;20630;-58
2022/03/19 07:50:32;;;;;;;16.38;5.60;;;;;;;;;;5072869;28;20210;-58
2022/03/19 07:52:57;;;;;;;13.57;5.15;;;;;;;;;;5071931;28;20230;-58
2022/03/19 07:55:24;;;;;;;15.98;4.97;;;;;;;;;;5072198;28;20211;-58
2022/03/19 07:57:49;;;;;;;14.38;4.53;;;;;;;;;;5071892;28;20211;-58
2022/03/19 08:00:14;;;;;;;16.05;5.32;;;;;;;;;;5057905;28;20211;-60
2022/03/19 08:02:40;;;;;;;15.35;5.40;;;;;;;;;;5052499;28;20811;-58
2022/03/19 08:05:05;;;;;;;15.98;4.85;;;;;;;;;;5051450;28;21068;-58
2022/03/19 08:07:31;;;;;;;12.82;4.78;;;;;;;;;;5052313;28;20211;-58
2022/03/19 08:09:56;;;;;;;13.73;5.35;;;;;;;;;;5052460;28;20690;-58
2022/03/19 08:12:21;;;;;;;12.63;4.53;;;;;;;;;;5050855;28;20215;-58
2022/03/19 08:14:46;;;;;;;14.57;4.70;;;;;;;;;;5052242;28;20298;-58
2022/03/19 08:17:12;;;;;;;14.52;4.53;;;;;;;;;;5045094;28;20210;-59
2022/03/19 08:19:37;;;;;;;11.60;4.30;;;;;;;;;;5071474;28;20214;-58
2022/03/19 08:22:03;;;;;;;12.82;4.20;;;;;;;;;;5071841;28;20210;-58
2022/03/19 08:24:28;;;;;;;12.63;3.97;;;;;;;;;;5071996;28;20228;-58
2022/03/19 08:26:54;;;;;;;12.70;4.60;;;;;;;;;;5071229;28;20260;-58
2022/03/19 08:29:23;;;;;;;10.55;4.45;;;;;;;;;;5071626;28;20222;-59
2022/03/19 08:31:49;;;;;;;13.85;4.70;;;;;;;;;;5071992;28;20211;-59
2022/03/19 08:34:14;;;;;;;12.18;4.50;;;;;;;;;;5070803;28;20256;-58
2022/03/19 08:36:39;;;;;;;12.25;4.80;;;;;;;;;;5072019;28;20202;-58
2022/03/19 08:41:48;;;;;;;14.65;4.85;;;;;;;;;;5070878;28;20220;-58
2022/03/19 08:44:13;;;;;;;10.52;3.95;;;;;;;;;;5069847;28;20226;-59
2022/03/19 08:46:39;;;;;;;10.88;4.03;;;;;;;;;;5051821;28;20238;-59
2022/03/19 08:49:04;;;;;;;11.80;4.38;;;;;;;;;;5049455;28;20215;-58
2022/03/19 08:51:39;;;;;;;13.57;4.30;;;;;;;;;;5051790;28;20736;-58
2022/03/19 08:54:05;;;;;;;10.30;3.88;;;;;;;;;;5050129;28;20613;-59
2022/03/19 08:56:31;;;;;;;10.27;3.72;;;;;;;;;;5051577;28;20207;-58
2022/03/19 08:58:56;;;;;;;10.50;3.97;;;;;;;;;;5054738;28;20214;-58
2022/03/19 09:01:22;;;;;;;12.02;4.13;;;;;;;;;;5070195;28;20248;-59
2022/03/19 09:03:47;;;;;;;13.57;4.05;;;;;;;;;;5071226;28;20359;-58
2022/03/19 09:06:14;;;;;;;10.43;3.72;;;;;;;;;;5070953;28;20309;-59
2022/03/19 09:08:40;;;;;;;10.45;3.33;;;;;;;;;;5070472;28;20210;-58
2022/03/19 09:11:05;;;;;;;9.88;3.42;;;;;;;;;;5070661;28;20214;-59
2022/03/19 09:13:31;;;;;;;13.07;3.72;;;;;;;;;;5071106;28;20316;-58
2022/03/19 09:15:56;;;;;;;10.30;3.47;;;;;;;;;;5058097;28;20725;-58
2022/03/19 09:18:21;;;;;;;7.68;2.85;;;;;;;;;;5050461;28;20584;-58
2022/03/19 09:20:47;;;;;;;8.43;2.97;;;;;;;;;;5051274;28;20591;-58
2022/03/19 09:23:12;;;;;;;8.95;2.83;;;;;;;;;;5049762;28;20227;-58
2022/03/19 09:25:37;;;;;;;9.27;2.63;;;;;;;;;;5050989;28;20681;-58
2022/03/19 09:28:03;;;;;;;9.27;2.72;;;;;;;;;;5050541;28;20214;-58
2022/03/19 09:30:28;;;;;;;8.85;2.55;;;;;;;;;;5050165;28;20229;-58
2022/03/19 09:32:57;;;;;;;9.48;3.00;;;;;;;;;;5050878;28;20702;-58
2022/03/19 09:35:22;;;;;;;7.85;2.78;;;;;;;;;;5050280;28;20211;-58
2022/03/19 09:37:47;;;;;;;7.75;2.42;;;;;;;;;;5050224;28;20219;-58
2022/03/19 09:40:13;;;;;;;7.22;2.20;;;;;;;;;;5050403;28;20215;-58
2022/03/19 09:42:46;;;;;;;8.60;2.65;;;;;;;;;;5050602;28;20576;-58
2022/03/19 09:45:11;;;;;;;12.20;4.28;;;;;;;;;;5058820;28;20314;-58
2022/03/19 09:47:36;;;;;;;11.25;6.35;;;;;;;;;;5070600;28;20293;-58
2022/03/19 09:50:02;;;;;;;7.93;2.80;;;;;;;;;;5070145;28;20245;-58
2022/03/19 09:52:27;;;;;;;6.93;2.40;;;;;;;;;;5069637;28;20269;-58
2022/03/19 09:54:53;;;;;;;7.45;2.67;;;;;;;;;;5070526;28;20578;-58
2022/03/19 09:57:19;;;;;;;7.72;3.42;;;;;;;;;;5069483;28;20256;-58
2022/03/19 09:59:45;;;;;;;9.77;3.08;;;;;;;;;;5059900;28;20726;-58
2022/03/19 10:02:10;;;;;;;8.95;2.85;;;;;;;;;;5050064;28;20223;-58
2022/03/19 10:04:42;;;;;;;8.68;3.50;;;;;;;;;;5049538;28;20787;-58
2022/03/19 10:09:52;;;;;;;10.10;2.85;;;;;;;;;;5050611;28;20257;-58
2022/03/19 10:12:20;;;;;;;9.70;3.10;;;;;;;;;;5049102;28;20638;-58
2022/03/19 10:14:46;;;;;;;6.25;2.72;;;;;;;;;;5050157;28;20317;-58
2022/03/19 10:17:14;;;;;;;8.63;2.85;;;;;;;;;;5060941;28;20218;-58
2022/03/19 10:19:49;;;;;;;8.00;2.72;;;;;;;;;;5051543;28;20210;-58
2022/03/19 10:22:14;;;;;;;7.65;2.28;;;;;;;;;;5069896;28;20259;-58
2022/03/19 10:24:40;;;;;;;9.43;2.30;;;;;;;;;;5069922;28;20226;-58
2022/03/19 10:27:05;;;;;;;7.78;2.40;;;;;;;;;;5068768;28;20293;-58
2022/03/19 10:29:33;;;;;;;6.55;2.33;;;;;;;;;;5052003;28;20615;-58
2022/03/19 10:31:59;;;;;;;7.50;2.45;;;;;;;;;;5070199;28;20853;-58
2022/03/19 10:34:24;;;;;;;10.23;2.45;;;;;;;;;;5068706;28;20650;-58
2022/03/19 10:36:49;;;;;;;9.00;2.50;;;;;;;;;;5070085;28;20226;-58
2022/03/19 10:39:18;;;;;;;6.82;2.20;;;;;;;;;;5069578;28;20266;-58
2022/03/19 10:41:44;;;;;;;8.10;3.00;;;;;;;;;;5069370;28;20302;-58
2022/03/19 10:44:10;;;;;;;6.40;1.95;;;;;;;;;;5068537;28;20222;-58
2022/03/19 10:46:36;;;;;;;7.85;2.10;;;;;;;;;;5049438;28;20215;-58
2022/03/19 10:49:02;;;;;;;6.43;2.28;;;;;;;;;;5049475;28;20223;-58
2022/03/19 10:51:29;;;;;;;7.47;2.15;;;;;;;;;;5049718;28;20246;-58
2022/03/19 10:53:54;;;;;;;8.48;2.20;;;;;;;;;;5048983;28;20242;-58
2022/03/19 10:56:19;;;;;;;7.93;2.58;;;;;;;;;;5031655;28;20211;-58
2022/03/19 10:58:45;;;;;;;7.45;2.03;;;;;;;;;;5033778;28;20298;-58
2022/03/19 11:01:12;;;;;;;7.43;2.40;;;;;;;;;;5068585;28;20214;-58
2022/03/19 11:03:38;;;;;;;6.68;2.00;;;;;;;;;;5069951;28;20321;-58
2022/03/19 11:06:04;;;;;;;7.43;2.15;;;;;;;;;;5069299;28;20683;-58
2022/03/19 11:08:30;;;;;;;7.22;1.77;;;;;;;;;;5068958;28;20230;-58
2022/03/19 11:10:57;;;;;;;6.63;1.70;;;;;;;;;;5069883;28;20242;-58
2022/03/19 11:13:22;;;;;;;3.97;1.25;;;;;;;;;;5055027;28;20213;-58
2022/03/19 11:15:49;;;;;;;6.28;1.92;;;;;;;;;;5061847;28;20682;-58
2022/03/19 11:18:14;;;;;;;5.03;1.52;;;;;;;;;;5035122;28;20647;-58
2022/03/19 11:20:40;;;;;;;6.40;1.85;;;;;;;;;;5035747;28;20242;-58
2022/03/19 11:23:05;;;;;;;5.78;1.65;;;;;;;;;;5034315;28;20211;-58
2022/03/19 11:25:37;;;;;;;7.28;1.90;;;;;;;;;;5035895;28;20219;-58
2022/03/19 11:28:06;;;;;;;5.95;1.90;;;;;;;;;;5053183;28;20253;-58
2022/03/19 11:30:34;;;;;;;7.38;1.77;;;;;;;;;;5052381;28;20678;-58
2022/03/19 11:33:01;;;;;;;7.78;2.50;;;;;;;;;;5053017;28;20211;-58
2022/03/19 11:35:26;;;;;;;7.95;1.60;;;;;;;;;;5052946;28;20245;-58
2022/03/19 11:38:00;;;;;;;6.13;1.75;;;;;;;;;;5052417;28;20706;-58
2022/03/19 11:40:28;;;;;;;6.68;1.60;;;;;;;;;;5052658;28;20211;-58
2022/03/19 11:42:54;;;;;;;4.93;1.25;;;;;;;;;;5052495;28;20643;-58
2022/03/19 11:45:19;;;;;;;5.57;1.23;;;;;;;;;;5063011;28;20700;-58
2022/03/19 11:47:45;;;;;;;7.15;1.30;;;;;;;;;;5055130;28;20606;-58
2022/03/19 11:50:16;;;;;;;5.97;1.40;;;;;;;;;;5071834;28;20214;-58
2022/03/19 11:52:42;;;;;;;6.30;1.20;;;;;;;;;;5072568;28;20226;-58
2022/03/19 11:55:09;;;;;;;3.53;1.00;;;;;;;;;;5072499;28;20211;-58
2022/03/19 11:57:44;;;;;;;5.32;1.38;;;;;;;;;;5072059;28;20206;-58
2022/03/19 12:00:10;;;;;;;7.20;1.35;;;;;;;;;;5058830;28;20619;-58
2022/03/19 12:02:55;;;;;;;5.90;1.60;;;;;;;;;;5035100;28;20682;-58
2022/03/19 12:05:22;;;;;;;4.22;1.17;;;;;;;;;;5051431;28;20449;-58
2022/03/19 12:07:47;;;;;;;5.80;1.60;;;;;;;;;;5035034;28;20261;-58
2022/03/19 12:10:14;;;;;;;5.43;1.95;;;;;;;;;;5052092;28;20223;-58
2022/03/19 12:12:41;;;;;;;5.85;1.45;;;;;;;;;;5034171;28;20214;-58
2022/03/19 12:15:25;;;;;;;6.93;1.85;;;;;;;;;;5051984;28;20217;-58
2022/03/19 12:17:50;;;;;;;7.10;1.60;;;;;;;;;;5069079;28;20238;-58
2022/03/19 12:20:16;;;;;;;6.70;2.05;;;;;;;;;;5053441;28;20644;-59
2022/03/19 12:22:41;;;;;;;7.43;1.58;;;;;;;;;;5072011;28;20222;-58
2022/03/19 12:25:06;;;;;;;6.18;1.55;;;;;;;;;;5071153;28;20651;-58
2022/03/19 12:27:32;;;;;;;6.20;1.58;;;;;;;;;;5072489;28;20234;-58
2022/03/19 12:29:58;;;;;;;3.58;1.42;;;;;;;;;;5054438;28;20215;-58
2022/03/19 12:32:23;;;;;;;6.63;2.03;;;;;;;;;;5071015;28;20233;-58
2022/03/19 12:34:57;;;;;;;5.93;1.73;;;;;;;;;;5072209;28;20206;-58
2022/03/19 12:37:22;;;;;;;5.68;1.40;;;;;;;;;;5071487;28;20479;-58
2022/03/19 12:39:56;;;;;;;5.75;1.70;;;;;;;;;;5071363;28;20272;-58
2022/03/19 12:42:31;;;;;;;5.53;1.75;;;;;;;;;;5071563;28;20211;-58
2022/03/19 12:44:59;;;;;;;4.63;1.60;;;;;;;;;;5064676;28;20249;-58
2022/03/19 12:47:25;;;;;;;6.22;1.80;;;;;;;;;;5050558;28;20286;-58
2022/03/19 12:49:50;;;;;;;6.07;1.52;;;;;;;;;;5034002;28;20315;-58
2022/03/19 12:52:16;;;;;;;4.03;1.42;;;;;;;;;;5051189;28;20516;-58
2022/03/19 12:54:45;;;;;;;15.88;1.88;;;;;;;;;;5029526;28;20224;-58
2022/03/19 12:57:11;;;;;;;5.65;1.50;;;;;;;;;;5031423;28;20219;-58
2022/03/19 12:59:36;;;;;;;4.80;1.20;;;;;;;;;;5040616;28;20306;-58
2022/03/19 13:02:01;;;;;;;3.38;0.90;;;;;;;;;;5050353;28;20207;-58
2022/03/19 13:04:28;;;;;;;5.75;1.30;;;;;;;;;;5051572;28;20225;-58
2022/03/19 13:06:53;;;;;;;8.90;1.65;;;;;;;;;;5051644;28;20216;-58
2022/03/19 13:09:28;;;;;;;4.28;1.30;;;;;;;;;;5050310;28;20211;-58
2022/03/19 13:11:54;;;;;;;5.97;1.45;;;;;;;;;;5051586;28;20246;-58
2022/03/19 13:14:19;;;;;;;8.32;1.20;;;;;;;;;;5050196;28;20227;-57
2022/03/19 13:16:50;;;;;;;4.82;1.23;;;;;;;;;;5032385;28;20216;-58
2022/03/19 13:19:16;;;;;;;5.60;1.30;;;;;;;;;;5030931;28;20215;-58
2022/03/19 13:21:42;;;;;;;4.13;1.10;;;;;;;;;;5030508;28;20212;-58
2022/03/19 13:24:09;;;;;;;3.53;1.10;;;;;;;;;;5030809;28;20259;-58
2022/03/19 13:26:35;;;;;;;5.90;1.10;;;;;;;;;;5031449;28;20219;-58
2022/03/19 13:29:01;;;;;;;6.72;1.17;;;;;;;;;;5030569;28;20212;-58
2022/03/19 13:31:26;;;;;;;7.22;1.52;;;;;;;;;;5033240;28;20573;-58
2022/03/19 13:33:52;;;;;;;4.00;1.00;;;;;;;;;;5034238;28;20262;-58
2022/03/19 13:36:18;;;;;;;6.03;0.88;;;;;;;;;;5034639;28;20694;-58
2022/03/19 13:38:44;;;;;;;5.70;1.30;;;;;;;;;;5030987;28;20221;-58
2022/03/19 13:41:16;;;;;;;2.20;0.77;;;;;;;;;;5030654;28;20219;-58
2022/03/19 13:43:42;;;;;;;3.78;1.10;;;;;;;;;;5030158;28;20227;-58
2022/03/19 13:46:14;;;;;;;3.72;1.10;;;;;;;;;;5047087;28;20594;-58
2022/03/19 13:48:40;;;;;;;3.00;0.85;;;;;;;;;;5050640;28;20310;-58
2022/03/19 13:51:05;;;;;;;2.40;0.90;;;;;;;;;;5048306;28;20215;-58
2022/03/19 13:53:41;;;;;;;5.63;0.90;;;;;;;;;;5060462;28;20222;-58
2022/03/19 13:56:07;;;;;;;4.47;1.38;;;;;;;;;;5070047;28;20214;-58
2022/03/19 13:58:32;;;;;;;3.58;0.80;;;;;;;;;;5051531;28;20218;-58
2022/03/19 14:00:57;;;;;;;5.00;1.13;;;;;;;;;;5050384;28;20307;-58
2022/03/19 14:03:23;;;;;;;5.00;1.40;;;;;;;;;;5049766;28;20524;-58
2022/03/19 14:05:50;;;;;;;3.55;1.00;;;;;;;;;;5049946;28;20211;-58
2022/03/19 14:08:16;;;;;;;3.90;1.10;;;;;;;;;;5049720;28;20346;-58
2022/03/19 14:10:44;;;;;;;1.75;0.77;;;;;;;;;;5049413;28;20742;-58
2022/03/19 14:13:10;;;;;;;6.07;1.00;;;;;;;;;;5049840;28;20741;-58
2022/03/19 14:15:39;;;;;;;3.22;1.10;;;;;;;;;;5050229;28;20229;-57
2022/03/19 14:18:05;;;;;;;3.53;1.00;;;;;;;;;;5067294;28;20210;-58
2022/03/19 14:20:30;;;;;;;2.90;1.00;;;;;;;;;;5070057;28;20260;-58
2022/03/19 14:22:55;;;;;;;5.53;1.25;;;;;;;;;;5070068;28;20214;-58
2022/03/19 14:25:20;;;;;;;4.70;1.27;;;;;;;;;;5068727;28;20235;-58
2022/03/19 14:27:46;;;;;;;4.00;1.10;;;;;;;;;;5070178;28;20279;-58
2022/03/19 14:30:12;;;;;;;5.05;1.30;;;;;;;;;;5069674;28;20207;-59
2022/03/19 14:32:38;;;;;;;3.95;1.40;;;;;;;;;;5069240;28;20632;-58
2022/03/19 14:35:03;;;;;;;2.38;1.02;;;;;;;;;;5069405;28;20681;-58
2022/03/19 14:37:28;;;;;;;3.63;1.30;;;;;;;;;;5054272;28;20265;-58
2022/03/19 14:39:54;;;;;;;4.53;1.13;;;;;;;;;;5067482;28;20218;-58
2022/03/19 14:42:19;;;;;;;6.68;1.35;;;;;;;;;;5069486;28;20729;-57